Time;durP1;ratioP1;P1;durP2;ratioP2;P2;SDS_P1;SDS_P2;PMS_P1;PMS_P2;Temp;Humidity;BMP_temperature;BMP_pressure;BME280_temperature;BME280_humidity;BME280_pressure;Samples;Min_cycle;Max_cycle;Signal;HPM_P1;HPM_P2
2022/04/24 00:01:24;;;;;;;33.63;18.65;;;;;;;15.18;62.00;97801.06;4439992;32;20112;-86
2022/04/24 00:03:49;;;;;;;29.90;17.45;;;;;;;15.15;62.02;97794.25;4440316;32;20105;-85
2022/04/24 00:06:15;;;;;;;31.23;17.48;;;;;;;15.11;62.16;97795.50;4454484;32;20229;-85
2022/04/24 00:08:40;;;;;;;32.65;19.00;;;;;;;15.11;62.02;97791.03;4454230;32;20397;-88
2022/04/24 00:11:05;;;;;;;31.35;18.50;;;;;;;15.06;62.09;97793.22;4454397;32;20089;-86
2022/04/24 00:13:37;;;;;;;32.90;18.33;;;;;;;15.02;62.14;97791.84;4440057;32;20163;-86
2022/04/24 00:16:03;;;;;;;29.20;17.48;;;;;;;15.03;62.12;97798.81;4453856;32;20109;-86
2022/04/24 00:18:28;;;;;;;31.73;17.92;;;;;;;15.07;61.99;97796.75;4439757;32;20180;-87
2022/04/24 00:20:53;;;;;;;29.80;17.30;;;;;;;15.04;62.04;97794.34;4427909;32;20154;-88
2022/04/24 00:23:19;;;;;;;30.62;17.30;;;;;;;15.06;61.97;97789.75;4455175;32;20433;-88
2022/04/24 00:25:45;;;;;;;30.15;16.85;;;;;;;15.02;62.03;97788.34;4454996;32;20107;-90
2022/04/24 00:28:11;;;;;;;30.55;17.42;;;;;;;15.03;61.92;97782.91;4455069;32;20173;-86
2022/04/24 00:30:36;;;;;;;28.80;17.55;;;;;;;15.01;61.99;97782.22;4440905;32;20089;-87
2022/04/24 00:33:01;;;;;;;30.50;16.52;;;;;;;14.95;62.14;97772.16;4454832;32;20499;-87
2022/04/24 00:35:28;;;;;;;29.80;16.62;;;;;;;14.91;62.18;97762.75;4455608;32;20132;-88
2022/04/24 00:37:53;;;;;;;26.45;16.20;;;;;;;14.91;61.99;97755.69;4456983;32;20400;-88
2022/04/24 00:40:19;;;;;;;29.15;16.83;;;;;;;14.89;61.96;97747.03;4456889;32;20112;-88
2022/04/24 00:42:44;;;;;;;27.90;16.48;;;;;;;14.79;62.08;97747.97;4442852;32;20105;-87
2022/04/24 00:45:10;;;;;;;30.05;16.48;;;;;;;14.80;62.03;97752.31;4456799;32;20149;-86
2022/04/24 00:47:35;;;;;;;27.30;15.73;;;;;;;14.75;62.02;97765.94;4456788;32;20085;-87
2022/04/24 00:50:01;;;;;;;29.37;17.12;;;;;;;14.72;62.06;97766.22;4442811;32;20085;-87
2022/04/24 00:52:26;;;;;;;28.80;17.27;;;;;;;14.70;62.03;97770.84;4442726;32;20102;-87
2022/04/24 00:54:52;;;;;;;30.00;17.15;;;;;;;14.63;62.14;97767.87;4456821;32;20440;-88
2022/04/24 00:57:17;;;;;;;26.73;15.95;;;;;;;14.62;62.16;97758.25;4442757;32;20419;-87
2022/04/24 00:59:43;;;;;;;28.10;16.27;;;;;;;14.58;62.35;97745.37;4456770;32;20092;-87
2022/04/24 01:02:11;;;;;;;27.95;16.77;;;;;;;14.50;62.74;97752.16;4429607;32;20105;-87
2022/04/24 01:04:38;;;;;;;29.25;16.35;;;;;;;14.48;62.85;97755.91;4442880;32;20460;-87
2022/04/24 01:07:03;;;;;;;28.87;16.85;;;;;;;14.50;62.92;97765.41;4442692;32;20080;-87
2022/04/24 01:09:31;;;;;;;28.10;16.67;;;;;;;14.52;63.00;97762.63;4456670;32;20107;-87
2022/04/24 01:11:57;;;;;;;;;;;;;;;14.54;63.12;97758.03;4442994;32;20483;-88
2022/04/24 01:14:26;;;;;;;28.45;15.50;;;;;;;14.58;62.91;97761.28;4456800;32;19969;-87
2022/04/24 01:16:52;;;;;;;28.27;15.68;;;;;;;14.58;62.85;97767.41;4456534;32;20373;-87
2022/04/24 01:19:18;;;;;;;27.90;15.30;;;;;;;14.59;62.79;97769.09;4456425;32;20110;-86
2022/04/24 01:21:45;;;;;;;25.85;15.20;;;;;;;14.52;62.86;97760.81;4456426;32;20119;-87
2022/04/24 01:24:12;;;;;;;26.47;15.87;;;;;;;14.58;62.77;97766.59;4456644;32;20464;-87
2022/04/24 01:26:38;;;;;;;27.10;15.02;;;;;;;14.53;62.65;97749.25;4442567;32;20089;-87
2022/04/24 01:29:04;;;;;;;28.15;15.13;;;;;;;14.63;62.54;97748.47;4442444;32;20161;-87
2022/04/24 01:31:30;;;;;;;26.67;15.27;;;;;;;14.61;62.46;97743.31;4442538;32;20161;-86
2022/04/24 01:33:56;;;;;;;27.23;15.68;;;;;;;14.61;62.51;97745.97;4442338;32;20113;-88
2022/04/24 01:36:21;;;;;;;28.25;15.77;;;;;;;14.60;62.41;97746.91;4442219;32;20084;-87
2022/04/24 01:38:47;;;;;;;26.10;15.00;;;;;;;14.54;62.55;97740.34;4442688;32;20349;-87
2022/04/24 01:41:12;;;;;;;26.17;15.57;;;;;;;14.53;62.61;97730.69;4442487;32;20109;-88
2022/04/24 01:43:38;;;;;;;28.12;15.80;;;;;;;14.52;62.66;97744.06;4456675;32;20141;-88
2022/04/24 01:46:08;;;;;;;28.23;15.93;;;;;;;14.47;62.81;97735.72;4442457;32;20172;-87
2022/04/24 01:48:33;;;;;;;27.42;15.32;;;;;;;14.53;62.59;97732.50;4456728;32;20124;-87
2022/04/24 01:51:03;;;;;;;26.48;15.38;;;;;;;14.51;62.53;97730.00;4442310;32;20105;-88
2022/04/24 01:53:29;;;;;;;27.83;15.07;;;;;;;14.52;62.39;97731.66;4442139;32;20112;-86
2022/04/24 01:55:58;;;;;;;26.33;15.32;;;;;;;14.54;62.29;97731.53;4442340;32;20420;-88
2022/04/24 01:58:24;;;;;;;25.02;14.60;;;;;;;14.55;62.22;97715.50;4456315;32;20194;-87
2022/04/24 02:00:51;;;;;;;27.65;16.05;;;;;;;14.48;62.46;97727.59;4442239;32;20121;-86
2022/04/24 02:03:16;;;;;;;24.17;14.48;;;;;;;14.49;62.37;97725.81;4442225;32;20105;-87
2022/04/24 02:05:41;;;;;;;24.67;14.07;;;;;;;14.47;62.44;97728.59;4456303;32;20135;-87
2022/04/24 02:08:07;;;;;;;27.08;15.60;;;;;;;14.50;62.34;97738.06;4456306;32;20139;-87
2022/04/24 02:10:32;;;;;;;25.95;14.57;;;;;;;14.53;62.13;97736.00;4442322;32;20164;-87
2022/04/24 02:12:58;;;;;;;24.83;14.95;;;;;;;14.48;62.06;97716.16;4442341;32;20128;-87
2022/04/24 02:15:24;;;;;;;26.95;15.50;;;;;;;14.50;62.08;97727.47;4456474;32;20352;-86
2022/04/24 02:17:49;;;;;;;24.27;13.82;;;;;;;14.53;61.93;97727.22;4442268;32;20089;-87
2022/04/24 02:20:15;;;;;;;27.48;14.75;;;;;;;14.51;61.81;97730.00;4456201;32;20101;-88
2022/04/24 02:22:40;;;;;;;26.33;15.15;;;;;;;14.50;61.64;97723.00;4442276;32;20428;-87
2022/04/24 02:25:06;;;;;;;25.30;14.00;;;;;;;14.50;61.72;97728.31;4456457;32;20089;-87
2022/04/24 02:27:32;;;;;;;25.08;14.90;;;;;;;14.51;61.77;97729.16;4456430;32;20109;-87
2022/04/24 02:29:57;;;;;;;25.30;14.77;;;;;;;14.49;61.73;97731.09;4442299;32;20137;-87
2022/04/24 02:32:22;;;;;;;24.98;14.80;;;;;;;14.52;61.53;97720.22;4456468;32;20115;-87
2022/04/24 02:34:48;;;;;;;24.90;14.43;;;;;;;14.51;61.71;97716.75;4456251;32;20134;-87
2022/04/24 02:37:13;;;;;;;27.25;15.13;;;;;;;14.54;61.55;97718.28;4442248;32;20085;-87
2022/04/24 02:39:39;;;;;;;25.75;14.57;;;;;;;14.46;61.76;97711.00;4442239;32;20124;-87
2022/04/24 02:42:04;;;;;;;25.02;14.80;;;;;;;14.47;61.67;97709.22;4442112;32;20093;-89
2022/04/24 02:44:30;;;;;;;27.00;14.77;;;;;;;14.31;62.03;97715.84;4442024;32;20402;-88
2022/04/24 02:46:55;;;;;;;27.20;14.93;;;;;;;14.40;61.69;97718.66;4456021;32;20108;-87
2022/04/24 02:49:20;;;;;;;24.50;13.98;;;;;;;14.39;61.71;97723.13;4441970;32;20105;-87
2022/04/24 02:51:46;;;;;;;26.30;14.30;;;;;;;14.40;61.71;97716.84;4456069;32;20144;-87
2022/04/24 02:54:12;;;;;;;24.65;13.98;;;;;;;14.46;61.43;97712.81;4455941;32;20401;-87
2022/04/24 02:56:37;;;;;;;25.00;14.43;;;;;;;14.47;61.30;97710.03;4441938;32;20124;-87
2022/04/24 02:59:03;;;;;;;25.50;14.00;;;;;;;14.43;61.45;97703.34;4455045;32;20093;-87
2022/04/24 03:01:30;;;;;;;25.15;14.15;;;;;;;14.44;61.36;97702.34;4441829;32;20440;-88
2022/04/24 03:03:56;;;;;;;26.55;14.80;;;;;;;14.44;61.28;97705.00;4442106;32;20502;-88
2022/04/24 03:06:21;;;;;;;25.37;14.00;;;;;;;14.46;61.09;97700.41;4455290;32;20266;-87
2022/04/24 03:08:47;;;;;;;26.27;15.13;;;;;;;14.37;61.45;97698.56;4455766;32;20102;-87
2022/04/24 03:11:14;;;;;;;27.65;14.90;;;;;;;14.41;61.30;97686.72;4441893;32;20468;-88
2022/04/24 03:13:40;;;;;;;27.35;14.48;;;;;;;14.33;61.48;97691.84;4455849;32;20119;-87
2022/04/24 03:16:05;;;;;;;28.10;15.63;;;;;;;14.33;61.44;97692.72;4441859;32;20569;-87
2022/04/24 03:18:30;;;;;;;26.75;14.38;;;;;;;14.35;61.44;97688.09;4441764;32;20117;-86
2022/04/24 03:20:56;;;;;;;28.42;14.55;;;;;;;14.32;61.51;97677.75;4441189;32;20105;-86
2022/04/24 03:23:21;;;;;;;24.35;15.15;;;;;;;14.34;61.45;97683.78;4441602;32;20108;-88
2022/04/24 03:25:47;;;;;;;27.05;15.27;;;;;;;14.34;61.43;97683.78;4441563;32;20118;-87
2022/04/24 03:28:12;;;;;;;27.13;14.85;;;;;;;14.27;61.69;97679.97;4455687;32;20101;-88
2022/04/24 03:30:37;;;;;;;27.90;15.38;;;;;;;14.26;61.85;97680.97;4441656;32;20186;-89
2022/04/24 03:33:03;;;;;;;28.75;15.30;;;;;;;14.29;61.65;97683.34;4455804;32;20084;-88
2022/04/24 03:35:28;;;;;;;29.12;15.30;;;;;;;14.24;61.92;97674.97;4455673;32;20114;-88
2022/04/24 03:37:54;;;;;;;28.40;15.75;;;;;;;14.27;61.89;97660.59;4455754;32;20093;-88
2022/04/24 03:40:20;;;;;;;28.02;15.82;;;;;;;14.24;61.95;97663.53;4455535;32;20097;-87
2022/04/24 03:42:46;;;;;;;28.58;15.70;;;;;;;14.23;61.83;97670.63;4455507;32;20112;-87
2022/04/24 03:45:12;;;;;;;27.13;16.17;;;;;;;14.20;61.98;97667.41;4428668;32;20088;-87
2022/04/24 03:47:38;;;;;;;27.73;15.25;;;;;;;14.13;62.21;97669.75;4441465;32;20148;-87
2022/04/24 03:50:04;;;;;;;25.85;15.13;;;;;;;14.15;62.13;97665.16;4441436;32;20384;-86
2022/04/24 03:52:30;;;;;;;28.62;16.02;;;;;;;14.22;62.00;97665.47;4455513;32;20132;-86
2022/04/24 03:54:55;;;;;;;27.90;16.00;;;;;;;14.27;61.78;97660.59;4455463;32;20092;-86
2022/04/24 03:57:21;;;;;;;29.48;16.40;;;;;;;14.23;61.86;97652.06;4428443;32;20137;-86
2022/04/24 03:59:46;;;;;;;29.00;15.23;;;;;;;14.25;61.85;97657.25;4441337;32;20117;-86
2022/04/24 04:02:12;;;;;;;27.80;15.23;;;;;;;14.35;61.55;97647.50;4455201;32;20085;-86
2022/04/24 04:04:37;;;;;;;27.37;15.20;;;;;;;14.31;61.75;97652.25;4455480;32;20120;-86
2022/04/24 04:07:03;;;;;;;27.95;15.98;;;;;;;14.33;61.53;97663.56;4441337;32;20140;-86
2022/04/24 04:09:29;;;;;;;30.35;16.80;;;;;;;14.28;61.80;97659.63;4455307;32;20387;-86
2022/04/24 04:11:55;;;;;;;29.02;16.05;;;;;;;14.31;61.77;97652.25;4455275;32;20108;-86
2022/04/24 04:14:21;;;;;;;29.35;16.23;;;;;;;14.21;61.81;97651.38;4428256;32;20097;-85
2022/04/24 04:16:48;;;;;;;28.15;15.40;;;;;;;14.29;61.55;97648.06;4455506;32;20465;-86
2022/04/24 04:19:13;;;;;;;28.92;16.08;;;;;;;14.29;61.59;97650.69;4455289;32;20093;-86
2022/04/24 04:21:39;;;;;;;31.33;17.12;;;;;;;14.32;61.45;97661.87;4455369;32;20482;-86
2022/04/24 04:24:05;;;;;;;28.12;16.40;;;;;;;14.30;61.54;97663.81;4441408;32;20385;-86
2022/04/24 04:26:30;;;;;;;30.02;16.92;;;;;;;14.33;61.64;97660.06;4441296;32;20109;-86
2022/04/24 04:28:55;;;;;;;30.67;16.45;;;;;;;14.31;61.55;97662.88;4455277;32;20107;-86
2022/04/24 04:31:21;;;;;;;28.80;16.52;;;;;;;14.42;61.43;97661.91;4455111;32;20137;-85
2022/04/24 04:33:46;;;;;;;30.08;16.33;;;;;;;14.43;61.38;97658.28;4455185;32;20073;-86
2022/04/24 04:36:12;;;;;;;29.02;16.65;;;;;;;14.44;61.38;97661.78;4441120;32;20128;-87
2022/04/24 04:38:37;;;;;;;30.60;17.02;;;;;;;14.49;61.13;97668.34;4441103;32;20153;-87
2022/04/24 04:41:04;;;;;;;31.20;17.60;;;;;;;14.51;61.12;97661.09;4455088;32;20073;-87
2022/04/24 04:43:30;;;;;;;31.87;17.20;;;;;;;14.59;60.93;97673.69;4454795;32;20531;-87
2022/04/24 04:45:55;;;;;;;31.62;17.33;;;;;;;14.58;61.00;97657.91;4427883;32;20393;-87
2022/04/24 04:48:21;;;;;;;29.95;16.92;;;;;;;14.64;61.06;97652.06;4440735;32;20119;-86
2022/04/24 04:50:46;;;;;;;33.25;18.25;;;;;;;14.83;60.26;97646.78;4454688;32;20081;-87
2022/04/24 04:53:12;;;;;;;30.83;17.70;;;;;;;14.86;60.38;97645.69;4440512;32;20103;-86
2022/04/24 04:55:37;;;;;;;33.42;17.30;;;;;;;14.94;60.32;97645.81;4427574;32;20172;-87
2022/04/24 04:58:03;;;;;;;32.33;18.00;;;;;;;15.04;59.82;97646.66;4454897;32;20089;-87
2022/04/24 05:00:28;;;;;;;31.10;18.52;;;;;;;15.12;59.81;97636.22;4454532;32;20142;-88
2022/04/24 05:02:54;;;;;;;31.52;17.95;;;;;;;15.17;59.63;97649.03;4440234;32;20097;-89
2022/04/24 05:05:19;;;;;;;30.90;18.17;;;;;;;15.36;59.06;97644.69;4427751;32;20399;-88
2022/04/24 05:07:45;;;;;;;32.92;18.30;;;;;;;15.40;59.03;97640.78;4440439;32;20369;-88
2022/04/24 05:10:11;;;;;;;30.88;18.48;;;;;;;15.59;58.33;97646.03;4454314;32;20085;-88
2022/04/24 05:12:36;;;;;;;33.83;19.67;;;;;;;15.63;58.32;97641.28;4427456;32;20356;-89
2022/04/24 05:15:04;;;;;;;31.17;18.50;;;;;;;15.68;58.49;97639.88;4440228;32;20101;-88
2022/04/24 05:17:29;;;;;;;31.70;18.10;;;;;;;15.83;58.14;97642.91;4454394;32;20113;-87
2022/04/24 05:19:55;;;;;;;32.67;19.37;;;;;;;15.95;57.56;97635.59;4440007;32;20126;-88
2022/04/24 05:22:21;;;;;;;31.45;17.67;;;;;;;15.95;57.49;97634.78;4441646;32;20072;-87
2022/04/24 05:24:46;;;;;;;32.60;18.65;;;;;;;16.04;56.85;97632.09;4442455;32;20135;-87
2022/04/24 05:27:12;;;;;;;32.72;17.98;;;;;;;15.95;57.04;97637.44;4456577;32;20109;-87
2022/04/24 05:29:37;;;;;;;33.08;18.48;;;;;;;16.03;56.72;97640.19;4442572;32;20108;-87
2022/04/24 05:32:03;;;;;;;32.38;18.70;;;;;;;15.98;56.85;97648.59;4456545;32;20171;-87
2022/04/24 05:34:28;;;;;;;30.90;18.73;;;;;;;16.02;56.85;97643.84;4442247;32;20132;-87
2022/04/24 05:36:54;;;;;;;32.25;18.15;;;;;;;16.07;56.83;97647.75;4456365;32;20089;-86
2022/04/24 05:39:19;;;;;;;32.67;19.40;;;;;;;16.09;56.93;97634.31;4442688;32;20089;-87
2022/04/24 05:41:45;;;;;;;31.75;19.73;;;;;;;16.19;56.56;97631.59;4442510;32;20149;-88
2022/04/24 05:44:10;;;;;;;34.42;19.15;;;;;;;16.22;56.42;97639.28;4456730;32;20096;-87
2022/04/24 05:46:36;;;;;;;31.92;18.55;;;;;;;16.28;56.12;97634.22;4442654;32;20136;-87
2022/04/24 05:49:02;;;;;;;33.20;19.27;;;;;;;16.29;56.01;97641.19;4456678;32;20150;-87
2022/04/24 05:51:28;;;;;;;30.75;19.12;;;;;;;16.38;55.88;97641.28;4456623;32;20387;-87
2022/04/24 05:53:54;;;;;;;32.92;19.52;;;;;;;16.38;55.84;97651.91;4456678;32;20154;-87
2022/04/24 05:56:20;;;;;;;31.10;18.08;;;;;;;16.35;55.70;97647.72;4442604;32;20158;-88
2022/04/24 05:58:45;;;;;;;29.55;17.62;;;;;;;16.33;55.89;97643.56;4456325;32;20349;-86
2022/04/24 06:01:11;;;;;;;31.27;18.85;;;;;;;16.33;55.78;97633.75;4442067;32;20417;-86
2022/04/24 06:03:40;;;;;;;29.58;17.75;;;;;;;16.37;55.89;97643.09;4456453;32;20120;-87
2022/04/24 06:06:05;;;;;;;31.92;18.50;;;;;;;16.45;55.66;97640.53;4456259;32;20158;-87
2022/04/24 06:08:31;;;;;;;31.27;17.65;;;;;;;16.50;55.49;97632.13;4442306;32;20429;-87
2022/04/24 06:10:56;;;;;;;32.08;18.25;;;;;;;16.59;55.28;97633.03;4456288;32;20150;-88
2022/04/24 06:13:22;;;;;;;32.17;19.20;;;;;;;16.60;55.12;97632.06;4442034;32;20128;-87
2022/04/24 06:15:48;;;;;;;31.00;18.23;;;;;;;16.71;54.80;97630.03;4456318;32;20195;-87
2022/04/24 06:18:13;;;;;;;29.63;18.42;;;;;;;16.75;54.80;97640.38;4442195;32;20074;-86
2022/04/24 06:20:39;;;;;;;28.80;17.90;;;;;;;16.73;54.96;97632.53;4456029;32;20092;-88
2022/04/24 06:23:05;;;;;;;30.60;17.95;;;;;;;16.75;54.85;97629.72;4456029;32;20153;-87
2022/04/24 06:25:32;;;;;;;29.83;18.42;;;;;;;16.94;54.61;97631.41;4456156;32;20111;-87
2022/04/24 06:27:59;;;;;;;34.17;20.48;;;;;;;17.18;54.48;97628.16;4442238;32;20077;-88
2022/04/24 06:30:27;;;;;;;32.65;20.42;;;;;;;17.30;54.24;97632.22;4442029;32;20081;-87
2022/04/24 06:32:53;;;;;;;32.47;19.67;;;;;;;17.34;54.04;97630.09;4441042;32;20100;-88
2022/04/24 06:35:20;;;;;;;32.58;20.05;;;;;;;17.42;54.08;97632.81;4442015;32;20434;-88
2022/04/24 06:37:47;;;;;;;28.85;18.05;;;;;;;17.52;53.50;97633.56;4441981;32;20148;-88
2022/04/24 06:40:14;;;;;;;33.22;20.45;;;;;;;17.60;53.45;97633.63;4429163;32;20460;-87
2022/04/24 06:42:50;;;;;;;32.28;18.80;;;;;;;17.80;52.76;97620.91;4455919;32;20093;-87
2022/04/24 06:45:16;;;;;;;29.90;18.40;;;;;;;17.93;52.54;97619.69;4456033;32;20120;-87
2022/04/24 06:47:42;;;;;;;30.20;18.55;;;;;;;18.10;52.07;97624.09;4441969;32;20084;-86
2022/04/24 06:50:08;;;;;;;31.90;17.92;;;;;;;18.23;51.33;97618.31;4442065;32;20088;-87
2022/04/24 06:52:34;;;;;;;31.48;18.52;;;;;;;18.44;50.92;97610.72;4441838;32;20094;-88
2022/04/24 06:55:00;;;;;;;30.50;18.30;;;;;;;18.48;50.91;97619.22;4455905;32;20137;-89
2022/04/24 06:57:26;;;;;;;30.52;18.20;;;;;;;18.66;50.59;97627.94;4442024;32;20149;-88
2022/04/24 06:59:51;;;;;;;30.55;17.73;;;;;;;18.83;49.94;97620.00;4455920;32;20404;-87
2022/04/24 07:02:17;;;;;;;29.17;18.33;;;;;;;18.92;49.69;97618.19;4455725;32;20135;-87
2022/04/24 07:04:42;;;;;;;30.88;17.25;;;;;;;19.04;49.52;97617.72;4455966;32;20134;-87
2022/04/24 07:07:07;;;;;;;30.85;18.67;;;;;;;19.29;48.97;97622.19;4455813;32;20132;-87
2022/04/24 07:09:33;;;;;;;29.02;17.00;;;;;;;19.46;48.68;97621.19;4455914;32;20118;-88
2022/04/24 07:11:58;;;;;;;26.65;16.73;;;;;;;19.69;47.40;97613.31;4441715;32;20101;-87
2022/04/24 07:14:24;;;;;;;28.20;17.37;;;;;;;19.84;47.33;97619.66;4441750;32;20097;-88
2022/04/24 07:16:49;;;;;;;27.65;17.25;;;;;;;19.97;47.54;97621.78;4441691;32;20421;-88
2022/04/24 07:19:15;;;;;;;28.52;18.20;;;;;;;19.98;47.30;97617.28;4455565;32;20102;-89
2022/04/24 07:21:40;;;;;;;28.87;17.00;;;;;;;20.06;46.99;97614.56;4441656;32;20182;-91
2022/04/24 07:24:06;;;;;;;27.37;16.58;;;;;;;20.11;47.06;97616.69;4455940;32;20403;-88
2022/04/24 07:26:31;;;;;;;26.10;16.00;;;;;;;19.98;46.92;97620.78;4455653;32;20486;-87
2022/04/24 07:28:57;;;;;;;29.92;16.87;;;;;;;20.02;46.97;97614.06;4455734;32;20092;-87
2022/04/24 07:31:22;;;;;;;27.55;16.48;;;;;;;20.11;47.07;97609.53;4440131;32;20102;-86
2022/04/24 07:33:48;;;;;;;29.52;17.17;;;;;;;20.09;46.91;97605.34;4441799;32;20224;-87
2022/04/24 07:36:13;;;;;;;27.33;16.08;;;;;;;20.02;46.90;97603.38;4455819;32;20142;-86
2022/04/24 07:38:39;;;;;;;28.75;17.55;;;;;;;20.09;47.23;97600.00;4441818;32;20154;-88
2022/04/24 07:41:04;;;;;;;25.65;16.62;;;;;;;20.12;46.87;97600.50;4455818;32;20345;-88
2022/04/24 07:43:30;;;;;;;28.27;17.12;;;;;;;20.14;47.13;97603.81;4441717;32;20096;-90
2022/04/24 07:45:55;;;;;;;26.40;15.98;;;;;;;20.27;47.05;97613.16;4441012;32;20085;-90
2022/04/24 07:48:21;;;;;;;26.65;15.63;;;;;;;20.27;46.87;97613.97;4441436;32;20208;-85
2022/04/24 07:50:49;;;;;;;27.58;16.10;;;;;;;20.19;47.05;97603.31;4455340;32;20104;-84
2022/04/24 07:53:16;;;;;;;25.85;15.25;;;;;;;20.14;47.03;97603.81;4455531;32;20105;-83
2022/04/24 07:55:43;;;;;;;27.25;16.02;;;;;;;20.18;47.20;97605.13;4441692;32;20119;-86
2022/04/24 07:58:09;;;;;;;24.57;14.77;;;;;;;20.13;47.39;97612.03;4441394;32;20527;-83
2022/04/24 08:00:34;;;;;;;27.58;16.60;;;;;;;20.31;47.22;97607.25;4441332;32;20207;-83
2022/04/24 08:03:01;;;;;;;25.42;15.85;;;;;;;20.39;47.25;97607.22;4428329;32;20106;-83
2022/04/24 08:05:28;;;;;;;25.52;15.48;;;;;;;20.39;47.30;97601.88;4455317;32;20135;-83
2022/04/24 08:07:55;;;;;;;25.08;15.30;;;;;;;20.52;47.44;97604.00;4455338;32;20107;-83
2022/04/24 08:10:23;;;;;;;25.98;15.52;;;;;;;20.56;47.29;97607.16;4441284;32;20109;-86
2022/04/24 08:12:49;;;;;;;27.27;15.73;;;;;;;20.66;46.57;97583.69;4455295;32;20137;-84
2022/04/24 08:15:14;;;;;;;25.27;15.20;;;;;;;20.72;46.65;97576.81;4455218;32;20402;-84
2022/04/24 08:17:40;;;;;;;26.33;14.68;;;;;;;20.73;47.18;97586.50;4455151;32;20108;-84
2022/04/24 08:20:07;;;;;;;23.65;14.18;;;;;;;20.93;46.55;97581.50;4455263;32;20105;-84
2022/04/24 08:22:47;;;;;;;23.58;14.48;;;;;;;21.00;46.24;97575.25;4441184;32;20162;-84
2022/04/24 08:25:17;;;;;;;25.10;14.57;;;;;;;21.08;45.94;97576.22;4455341;32;20107;-84
2022/04/24 08:27:44;;;;;;;26.65;14.60;;;;;;;21.08;46.09;97566.31;4441343;32;20077;-84
2022/04/24 08:30:11;;;;;;;23.98;13.45;;;;;;;21.29;45.53;97570.16;4455369;32;20101;-84
2022/04/24 08:32:38;;;;;;;24.33;13.48;;;;;;;21.27;45.83;97558.81;4455349;32;20388;-84
2022/04/24 08:35:05;;;;;;;25.65;13.73;;;;;;;21.29;45.46;97546.87;4455188;32;20110;-84
2022/04/24 08:37:30;;;;;;;25.98;13.80;;;;;;;21.41;45.19;97552.63;4441153;32;20103;-84
2022/04/24 08:39:56;;;;;;;22.65;14.18;;;;;;;21.55;44.98;97553.69;4440717;32;20096;-84
2022/04/24 08:42:27;;;;;;;24.42;14.00;;;;;;;21.51;44.78;97560.44;4454776;32;20388;-84
2022/04/24 08:44:56;;;;;;;26.27;13.62;;;;;;;21.48;44.95;97558.97;4454853;32;20479;-84
2022/04/24 08:47:22;;;;;;;24.33;13.25;;;;;;;21.58;44.81;97545.28;4440953;32;20092;-85
2022/04/24 08:49:47;;;;;;;23.12;13.15;;;;;;;21.68;44.86;97548.50;4427866;32;20120;-84
2022/04/24 08:52:16;;;;;;;21.37;12.77;;;;;;;21.82;45.23;97543.34;4440957;32;20115;-83
2022/04/24 08:54:42;;;;;;;20.88;11.85;;;;;;;21.93;44.44;97537.50;4432050;32;20464;-83
2022/04/24 08:57:12;;;;;;;22.33;12.98;;;;;;;22.14;44.04;97542.09;4441076;32;20135;-82
2022/04/24 08:59:37;;;;;;;19.48;11.15;;;;;;;22.28;43.13;97541.25;4442892;32;20113;-85
2022/04/24 09:02:04;;;;;;;20.02;11.15;;;;;;;22.54;42.35;97537.19;4452209;32;20101;-86
2022/04/24 09:04:33;;;;;;;18.35;10.65;;;;;;;22.58;42.16;97528.59;4427394;32;20102;-84
2022/04/24 09:07:01;;;;;;;20.05;10.60;;;;;;;22.64;42.06;97521.63;4446079;32;20101;-84
2022/04/24 09:09:26;;;;;;;18.87;10.38;;;;;;;22.76;41.94;97524.63;4438604;32;20444;-83
2022/04/24 09:11:52;;;;;;;20.12;10.20;;;;;;;22.91;41.39;97528.09;4452276;32;20108;-84
2022/04/24 09:14:19;;;;;;;18.60;10.68;;;;;;;23.07;41.18;97523.50;4443695;32;20107;-90
2022/04/24 09:16:49;;;;;;;19.07;10.30;;;;;;;23.06;41.21;97524.50;4436187;32;20119;-89
2022/04/24 09:19:25;;;;;;;17.05;8.38;;;;;;;23.13;41.72;97533.44;4440352;32;20173;-88
2022/04/24 09:21:52;;;;;;;14.73;7.05;;;;;;;23.21;40.37;97517.19;4445962;32;20456;-88
2022/04/24 09:24:18;;;;;;;13.77;6.05;;;;;;;23.19;40.17;97513.88;4422648;32;20085;-88
2022/04/24 09:26:56;;;;;;;12.20;5.50;;;;;;;23.08;39.12;97511.69;4431830;32;20132;-90
2022/04/24 09:29:22;;;;;;;12.30;5.00;;;;;;;23.19;38.90;97518.41;4443173;32;20411;-91
2022/04/24 09:31:49;;;;;;;10.48;4.37;;;;;;;23.33;38.46;97510.25;4441679;32;20233;-91
2022/04/24 09:34:19;;;;;;;10.20;3.80;;;;;;;23.31;39.00;97498.88;4445750;32;20093;-89
2022/04/24 09:36:46;;;;;;;11.27;3.20;;;;;;;23.32;37.92;97507.75;4445867;32;20081;-88
2022/04/24 09:39:11;;;;;;;7.25;2.40;;;;;;;23.51;36.78;97506.25;4445665;32;20154;-90
2022/04/24 09:41:37;;;;;;;7.50;2.15;;;;;;;23.49;36.43;97502.91;4434460;32;20361;-90
2022/04/24 09:44:14;;;;;;;9.82;2.30;;;;;;;23.36;36.50;97499.09;4439333;32;20089;-89
2022/04/24 09:46:40;;;;;;;10.10;2.47;;;;;;;23.59;36.82;97503.38;4428164;32;20101;-93
2022/04/24 09:49:08;;;;;;;9.48;2.85;;;;;;;23.71;35.75;97504.47;4439087;32;20116;-88
2022/04/24 09:51:39;;;;;;;7.43;2.15;;;;;;;23.83;35.96;97504.75;4427754;32;20119;-89
2022/04/24 09:54:05;;;;;;;6.40;1.58;;;;;;;23.80;35.75;97509.69;4439431;32;20085;-88
2022/04/24 09:56:31;;;;;;;7.20;1.40;;;;;;;23.81;33.58;97517.59;4435773;32;20094;-90
2022/04/24 09:58:57;;;;;;;5.12;1.30;;;;;;;23.73;33.47;97507.78;4425286;32;20109;-88
2022/04/24 10:01:23;;;;;;;8.85;1.60;;;;;;;23.73;33.66;97502.41;4424750;32;20127;-89
2022/04/24 10:03:49;;;;;;;7.07;1.60;;;;;;;23.50;33.72;97512.62;4429427;32;20171;-90
2022/04/24 10:06:15;;;;;;;7.78;1.27;;;;;;;23.43;33.16;97512.59;4438910;32;20448;-90
2022/04/24 10:08:41;;;;;;;3.47;1.17;;;;;;;23.31;33.64;97516.84;4434500;32;20569;-89
2022/04/24 10:11:06;;;;;;;7.12;1.23;;;;;;;23.11;33.26;97514.00;4424800;32;20093;-89
2022/04/24 10:13:35;;;;;;;4.90;1.10;;;;;;;23.16;33.62;97522.34;4439084;32;20097;-88
2022/04/24 10:16:28;;;;;;;7.25;1.20;;;;;;;23.12;34.12;97539.84;4445363;32;20085;-89
2022/04/24 10:19:12;;;;;;;3.42;1.00;;;;;;;23.08;34.32;97549.31;4439802;32;20464;-89
2022/04/24 10:22:00;;;;;;;6.37;1.30;;;;;;;23.04;33.68;97550.72;4442458;32;20093;-87
2022/04/24 10:24:38;;;;;;;4.20;1.00;;;;;;;22.75;34.33;97557.88;4430132;32;20540;-86
2022/04/24 10:27:03;;;;;;;4.85;1.17;;;;;;;22.96;34.22;97544.44;4431749;32;20508;-87
2022/04/24 10:29:29;;;;;;;5.70;1.15;;;;;;;23.07;33.76;97544.97;4417216;32;20121;-88
2022/04/24 10:31:54;;;;;;;8.80;1.27;;;;;;;23.08;34.23;97535.88;4441578;32;20498;-86
2022/04/24 10:34:20;;;;;;;3.75;0.90;;;;;;;23.12;35.29;97534.47;4436767;32;20086;-88
2022/04/24 10:36:58;;;;;;;6.50;1.12;;;;;;;23.32;35.00;97546.22;4445780;32;20084;-89
2022/04/24 10:39:27;;;;;;;6.22;1.42;;;;;;;23.19;34.82;97546.09;4449288;32;20129;-94
2022/04/24 10:41:54;;;;;;;6.03;1.00;;;;;;;22.96;35.39;97552.47;4451747;32;20560;-92
2022/04/24 10:44:19;;;;;;;4.32;0.95;;;;;;;22.71;35.33;97541.31;4428141;32;20115;-91
2022/04/24 10:46:47;;;;;;;4.55;0.88;;;;;;;22.65;35.08;97547.44;4450707;32;20082;-90
2022/04/24 10:49:15;;;;;;;3.60;0.75;;;;;;;22.38;35.35;97549.00;4444783;32;20460;-90
2022/04/24 10:51:42;;;;;;;6.90;1.20;;;;;;;22.18;35.52;97538.84;4451090;32;20601;-88
2022/04/24 10:54:13;;;;;;;2.53;0.70;;;;;;;22.04;35.60;97539.72;4441265;32;20503;-90
2022/04/24 10:56:41;;;;;;;6.97;1.00;;;;;;;21.80;36.17;97530.13;4434536;32;20089;-91
2022/04/24 10:59:14;;;;;;;4.55;1.00;;;;;;;21.84;37.01;97536.75;4447121;32;20096;-88
2022/04/24 11:01:53;;;;;;;3.80;1.10;;;;;;;21.81;36.79;97534.47;4441970;32;20112;-88
2022/04/24 11:04:20;;;;;;;2.97;1.00;;;;;;;21.85;37.21;97535.75;4437487;32;20081;-90
2022/04/24 11:06:52;;;;;;;2.67;0.90;;;;;;;21.64;37.16;97541.88;4438787;32;20735;-90
2022/04/24 11:09:18;;;;;;;4.53;0.90;;;;;;;21.45;37.81;97542.41;4448240;32;20116;-90
2022/04/24 11:12:01;;;;;;;4.47;0.95;;;;;;;21.51;37.80;97541.66;4441497;32;20160;-88
2022/04/24 11:14:28;;;;;;;2.22;0.80;;;;;;;21.56;37.59;97539.28;4443012;32;20549;-88
2022/04/24 11:16:58;;;;;;;7.57;1.17;;;;;;;21.51;38.39;97544.34;4432721;32;20123;-88